sensor_id;sensor_type;location;lat;lon;timestamp;P1;durP1;ratioP1;P2;durP2;ratioP2
4055;SDS011;2043;52.184;8.690;2022-12-07T00:01:13;21.90;;;13.57;;
4055;SDS011;2043;52.184;8.690;2022-12-07T00:03:45;22.10;;;14.13;;
4055;SDS011;2043;52.184;8.690;2022-12-07T00:06:14;27.43;;;14.40;;
4055;SDS011;2043;52.184;8.690;2022-12-07T00:08:43;23.70;;;14.70;;
4055;SDS011;2043;52.184;8.690;2022-12-07T00:11:11;23.33;;;15.13;;
4055;SDS011;2043;52.184;8.690;2022-12-07T00:13:40;25.57;;;16.27;;
4055;SDS011;2043;52.184;8.690;2022-12-07T00:16:08;29.60;;;16.60;;
4055;SDS011;2043;52.184;8.690;2022-12-07T00:18:37;25.00;;;15.83;;
4055;SDS011;2043;52.184;8.690;2022-12-07T00:21:15;33.00;;;16.70;;
4055;SDS011;2043;52.184;8.690;2022-12-07T00:23:43;32.03;;;17.40;;
4055;SDS011;2043;52.184;8.690;2022-12-07T00:26:12;32.60;;;17.60;;
4055;SDS011;2043;52.184;8.690;2022-12-07T00:28:44;34.20;;;18.30;;
4055;SDS011;2043;52.184;8.690;2022-12-07T00:31:13;34.13;;;19.60;;
4055;SDS011;2043;52.184;8.690;2022-12-07T00:33:41;34.13;;;19.27;;
4055;SDS011;2043;52.184;8.690;2022-12-07T00:36:09;34.87;;;19.60;;
4055;SDS011;2043;52.184;8.690;2022-12-07T00:38:38;35.90;;;19.80;;
4055;SDS011;2043;52.184;8.690;2022-12-07T00:41:15;34.13;;;19.53;;
4055;SDS011;2043;52.184;8.690;2022-12-07T00:43:47;33.60;;;19.80;;
4055;SDS011;2043;52.184;8.690;2022-12-07T00:46:16;38.90;;;20.17;;
4055;SDS011;2043;52.184;8.690;2022-12-07T00:48:43;34.80;;;20.10;;
4055;SDS011;2043;52.184;8.690;2022-12-07T00:51:11;40.63;;;20.50;;
4055;SDS011;2043;52.184;8.690;2022-12-07T00:53:39;39.67;;;21.53;;
4055;SDS011;2043;52.184;8.690;2022-12-07T00:56:08;49.00;;;22.53;;
4055;SDS011;2043;52.184;8.690;2022-12-07T00:58:37;38.97;;;22.33;;
4055;SDS011;2043;52.184;8.690;2022-12-07T01:01:05;39.57;;;21.10;;
4055;SDS011;2043;52.184;8.690;2022-12-07T01:03:33;42.80;;;22.70;;
4055;SDS011;2043;52.184;8.690;2022-12-07T01:06:00;40.60;;;21.37;;
4055;SDS011;2043;52.184;8.690;2022-12-07T01:08:27;41.23;;;22.37;;
4055;SDS011;2043;52.184;8.690;2022-12-07T01:11:01;41.33;;;21.00;;
4055;SDS011;2043;52.184;8.690;2022-12-07T01:13:32;41.00;;;20.13;;
4055;SDS011;2043;52.184;8.690;2022-12-07T01:16:01;38.03;;;19.90;;
4055;SDS011;2043;52.184;8.690;2022-12-07T01:18:30;34.77;;;19.60;;
4055;SDS011;2043;52.184;8.690;2022-12-07T01:23:33;35.27;;;19.50;;
4055;SDS011;2043;52.184;8.690;2022-12-07T01:26:02;36.53;;;19.30;;
4055;SDS011;2043;52.184;8.690;2022-12-07T01:28:31;34.97;;;20.03;;
4055;SDS011;2043;52.184;8.690;2022-12-07T01:30:59;33.30;;;19.23;;
4055;SDS011;2043;52.184;8.690;2022-12-07T01:33:29;33.60;;;19.40;;
4055;SDS011;2043;52.184;8.690;2022-12-07T01:36:01;37.73;;;18.83;;
4055;SDS011;2043;52.184;8.690;2022-12-07T01:38:30;37.43;;;18.40;;
4055;SDS011;2043;52.184;8.690;2022-12-07T01:40:57;34.03;;;18.77;;
4055;SDS011;2043;52.184;8.690;2022-12-07T01:43:26;33.50;;;18.27;;
4055;SDS011;2043;52.184;8.690;2022-12-07T01:45:54;37.57;;;19.43;;
4055;SDS011;2043;52.184;8.690;2022-12-07T01:48:23;34.10;;;18.20;;
4055;SDS011;2043;52.184;8.690;2022-12-07T01:51:01;32.90;;;18.10;;
4055;SDS011;2043;52.184;8.690;2022-12-07T01:53:31;31.40;;;17.17;;
4055;SDS011;2043;52.184;8.690;2022-12-07T01:56:01;30.93;;;16.80;;
4055;SDS011;2043;52.184;8.690;2022-12-07T01:58:28;32.27;;;16.47;;
4055;SDS011;2043;52.184;8.690;2022-12-07T02:00:55;32.00;;;15.90;;
4055;SDS011;2043;52.184;8.690;2022-12-07T02:03:27;26.27;;;15.03;;
4055;SDS011;2043;52.184;8.690;2022-12-07T02:06:06;31.20;;;15.20;;
4055;SDS011;2043;52.184;8.690;2022-12-07T02:08:34;24.97;;;14.30;;
4055;SDS011;2043;52.184;8.690;2022-12-07T02:11:01;26.30;;;14.60;;
4055;SDS011;2043;52.184;8.690;2022-12-07T02:13:30;27.47;;;14.87;;
4055;SDS011;2043;52.184;8.690;2022-12-07T02:21:27;28.73;;;12.63;;
4055;SDS011;2043;52.184;8.690;2022-12-07T02:35:43;25.13;;;12.70;;
4055;SDS011;2043;52.184;8.690;2022-12-07T02:44:01;27.10;;;11.50;;
4055;SDS011;2043;52.184;8.690;2022-12-07T02:46:32;20.20;;;10.57;;
4055;SDS011;2043;52.184;8.690;2022-12-07T02:49:03;17.90;;;10.17;;
4055;SDS011;2043;52.184;8.690;2022-12-07T02:51:33;18.97;;;9.93;;
4055;SDS011;2043;52.184;8.690;2022-12-07T02:54:00;22.10;;;11.27;;
4055;SDS011;2043;52.184;8.690;2022-12-07T02:56:40;20.57;;;10.47;;
4055;SDS011;2043;52.184;8.690;2022-12-07T03:10:24;16.07;;;8.97;;
4055;SDS011;2043;52.184;8.690;2022-12-07T03:18:34;23.67;;;10.83;;
4055;SDS011;2043;52.184;8.690;2022-12-07T03:21:15;23.10;;;10.40;;
4055;SDS011;2043;52.184;8.690;2022-12-07T03:23:45;24.90;;;9.70;;
4055;SDS011;2043;52.184;8.690;2022-12-07T03:26:16;19.77;;;9.53;;
4055;SDS011;2043;52.184;8.690;2022-12-07T03:28:48;20.27;;;9.60;;
4055;SDS011;2043;52.184;8.690;2022-12-07T03:33:48;22.13;;;9.70;;
4055;SDS011;2043;52.184;8.690;2022-12-07T03:39:02;17.30;;;9.00;;
4055;SDS011;2043;52.184;8.690;2022-12-07T03:41:43;17.87;;;9.83;;
4055;SDS011;2043;52.184;8.690;2022-12-07T03:44:11;19.73;;;9.23;;
4055;SDS011;2043;52.184;8.690;2022-12-07T03:46:48;22.23;;;9.20;;
4055;SDS011;2043;52.184;8.690;2022-12-07T03:49:26;16.13;;;8.53;;
4055;SDS011;2043;52.184;8.690;2022-12-07T03:52:07;18.00;;;9.17;;
4055;SDS011;2043;52.184;8.690;2022-12-07T03:57:24;21.50;;;9.20;;
4055;SDS011;2043;52.184;8.690;2022-12-07T03:59:53;17.70;;;8.37;;
4055;SDS011;2043;52.184;8.690;2022-12-07T04:02:21;24.43;;;9.70;;
4055;SDS011;2043;52.184;8.690;2022-12-07T04:04:50;28.27;;;9.80;;
4055;SDS011;2043;52.184;8.690;2022-12-07T04:07:17;18.13;;;8.27;;
4055;SDS011;2043;52.184;8.690;2022-12-07T04:09:44;19.77;;;8.90;;
4055;SDS011;2043;52.184;8.690;2022-12-07T04:12:10;15.90;;;8.33;;
4055;SDS011;2043;52.184;8.690;2022-12-07T04:14:37;22.20;;;8.70;;
4055;SDS011;2043;52.184;8.690;2022-12-07T04:17:04;17.50;;;8.07;;
4055;SDS011;2043;52.184;8.690;2022-12-07T04:19:32;15.07;;;8.27;;
4055;SDS011;2043;52.184;8.690;2022-12-07T04:22:00;20.80;;;8.73;;
4055;SDS011;2043;52.184;8.690;2022-12-07T04:24:28;25.87;;;7.60;;
4055;SDS011;2043;52.184;8.690;2022-12-07T04:26:55;13.33;;;7.47;;
4055;SDS011;2043;52.184;8.690;2022-12-07T04:29:22;15.77;;;8.00;;
4055;SDS011;2043;52.184;8.690;2022-12-07T04:31:49;15.90;;;7.23;;
4055;SDS011;2043;52.184;8.690;2022-12-07T04:34:17;14.80;;;6.83;;
4055;SDS011;2043;52.184;8.690;2022-12-07T04:36:44;16.20;;;6.80;;
4055;SDS011;2043;52.184;8.690;2022-12-07T04:39:20;19.60;;;7.20;;
4055;SDS011;2043;52.184;8.690;2022-12-07T04:41:51;19.70;;;6.67;;
4055;SDS011;2043;52.184;8.690;2022-12-07T04:44:18;18.53;;;5.80;;
4055;SDS011;2043;52.184;8.690;2022-12-07T04:46:46;11.50;;;6.43;;
4055;SDS011;2043;52.184;8.690;2022-12-07T04:49:14;9.67;;;5.60;;
4055;SDS011;2043;52.184;8.690;2022-12-07T04:51:41;13.10;;;6.20;;
4055;SDS011;2043;52.184;8.690;2022-12-07T04:54:09;14.60;;;6.00;;
4055;SDS011;2043;52.184;8.690;2022-12-07T04:56:36;14.80;;;6.00;;
4055;SDS011;2043;52.184;8.690;2022-12-07T04:59:03;11.53;;;5.60;;
4055;SDS011;2043;52.184;8.690;2022-12-07T05:01:30;16.57;;;6.20;;
4055;SDS011;2043;52.184;8.690;2022-12-07T05:03:58;18.57;;;5.93;;
4055;SDS011;2043;52.184;8.690;2022-12-07T05:06:25;14.47;;;6.77;;
4055;SDS011;2043;52.184;8.690;2022-12-07T05:08:52;13.93;;;5.50;;
4055;SDS011;2043;52.184;8.690;2022-12-07T05:11:19;12.80;;;6.40;;
4055;SDS011;2043;52.184;8.690;2022-12-07T05:14:09;14.80;;;5.73;;
4055;SDS011;2043;52.184;8.690;2022-12-07T05:16:38;17.30;;;7.60;;
4055;SDS011;2043;52.184;8.690;2022-12-07T05:19:07;18.37;;;7.40;;
4055;SDS011;2043;52.184;8.690;2022-12-07T05:21:35;15.27;;;7.00;;
4055;SDS011;2043;52.184;8.690;2022-12-07T05:24:02;13.67;;;6.57;;
4055;SDS011;2043;52.184;8.690;2022-12-07T05:26:30;14.83;;;6.10;;
4055;SDS011;2043;52.184;8.690;2022-12-07T05:28:57;11.03;;;6.50;;
4055;SDS011;2043;52.184;8.690;2022-12-07T05:31:24;12.53;;;6.20;;
4055;SDS011;2043;52.184;8.690;2022-12-07T05:33:52;15.77;;;6.90;;
4055;SDS011;2043;52.184;8.690;2022-12-07T05:36:19;17.80;;;6.07;;
4055;SDS011;2043;52.184;8.690;2022-12-07T05:38:46;21.40;;;6.37;;
4055;SDS011;2043;52.184;8.690;2022-12-07T05:41:14;13.23;;;6.63;;
4055;SDS011;2043;52.184;8.690;2022-12-07T05:44:01;14.40;;;5.77;;
4055;SDS011;2043;52.184;8.690;2022-12-07T05:46:28;20.20;;;6.50;;
4055;SDS011;2043;52.184;8.690;2022-12-07T05:48:55;14.33;;;6.50;;
4055;SDS011;2043;52.184;8.690;2022-12-07T05:51:22;15.90;;;5.83;;
4055;SDS011;2043;52.184;8.690;2022-12-07T05:53:49;15.60;;;5.77;;
4055;SDS011;2043;52.184;8.690;2022-12-07T05:56:16;13.43;;;5.00;;
4055;SDS011;2043;52.184;8.690;2022-12-07T05:58:43;15.10;;;5.77;;
4055;SDS011;2043;52.184;8.690;2022-12-07T06:01:29;10.17;;;4.20;;
4055;SDS011;2043;52.184;8.690;2022-12-07T06:03:56;13.33;;;4.80;;
4055;SDS011;2043;52.184;8.690;2022-12-07T06:06:23;12.73;;;4.80;;
4055;SDS011;2043;52.184;8.690;2022-12-07T06:08:50;13.70;;;5.23;;
4055;SDS011;2043;52.184;8.690;2022-12-07T06:11:17;12.97;;;4.50;;
4055;SDS011;2043;52.184;8.690;2022-12-07T06:14:03;16.33;;;5.60;;
4055;SDS011;2043;52.184;8.690;2022-12-07T06:16:30;7.90;;;4.80;;
4055;SDS011;2043;52.184;8.690;2022-12-07T06:18:57;12.47;;;5.30;;
4055;SDS011;2043;52.184;8.690;2022-12-07T06:21:24;9.77;;;4.93;;
4055;SDS011;2043;52.184;8.690;2022-12-07T06:23:52;9.80;;;5.50;;
4055;SDS011;2043;52.184;8.690;2022-12-07T06:26:20;16.30;;;5.10;;
4055;SDS011;2043;52.184;8.690;2022-12-07T06:28:47;13.53;;;4.90;;
4055;SDS011;2043;52.184;8.690;2022-12-07T06:31:14;7.00;;;4.07;;
4055;SDS011;2043;52.184;8.690;2022-12-07T06:33:41;15.43;;;5.20;;
4055;SDS011;2043;52.184;8.690;2022-12-07T06:36:08;9.90;;;4.40;;
4055;SDS011;2043;52.184;8.690;2022-12-07T06:38:36;10.23;;;4.43;;
4055;SDS011;2043;52.184;8.690;2022-12-07T06:41:03;9.50;;;4.00;;
4055;SDS011;2043;52.184;8.690;2022-12-07T06:43:30;9.60;;;4.87;;
4055;SDS011;2043;52.184;8.690;2022-12-07T06:45:57;17.20;;;4.87;;
4055;SDS011;2043;52.184;8.690;2022-12-07T06:48:24;14.87;;;4.60;;
4055;SDS011;2043;52.184;8.690;2022-12-07T06:50:52;11.03;;;4.70;;
4055;SDS011;2043;52.184;8.690;2022-12-07T06:53:20;7.73;;;4.43;;
4055;SDS011;2043;52.184;8.690;2022-12-07T06:55:48;17.40;;;5.70;;
4055;SDS011;2043;52.184;8.690;2022-12-07T06:58:15;13.57;;;4.70;;
4055;SDS011;2043;52.184;8.690;2022-12-07T07:00:43;15.47;;;3.90;;
4055;SDS011;2043;52.184;8.690;2022-12-07T07:03:10;10.03;;;4.10;;
4055;SDS011;2043;52.184;8.690;2022-12-07T07:05:37;14.70;;;4.50;;
4055;SDS011;2043;52.184;8.690;2022-12-07T07:08:04;13.07;;;4.43;;
4055;SDS011;2043;52.184;8.690;2022-12-07T07:10:48;13.07;;;4.10;;
4055;SDS011;2043;52.184;8.690;2022-12-07T07:13:15;13.10;;;4.90;;
4055;SDS011;2043;52.184;8.690;2022-12-07T07:15:42;13.57;;;4.60;;
4055;SDS011;2043;52.184;8.690;2022-12-07T07:18:09;11.07;;;4.60;;
4055;SDS011;2043;52.184;8.690;2022-12-07T07:20:36;15.27;;;4.93;;
4055;SDS011;2043;52.184;8.690;2022-12-07T07:23:03;16.97;;;4.70;;
4055;SDS011;2043;52.184;8.690;2022-12-07T07:25:30;13.47;;;4.30;;
4055;SDS011;2043;52.184;8.690;2022-12-07T07:27:58;12.50;;;4.17;;
4055;SDS011;2043;52.184;8.690;2022-12-07T07:30:25;12.33;;;4.70;;
4055;SDS011;2043;52.184;8.690;2022-12-07T07:32:56;11.60;;;4.03;;
4055;SDS011;2043;52.184;8.690;2022-12-07T07:35:24;11.87;;;4.23;;
4055;SDS011;2043;52.184;8.690;2022-12-07T07:37:52;19.63;;;4.03;;
4055;SDS011;2043;52.184;8.690;2022-12-07T07:40:19;12.33;;;4.70;;
4055;SDS011;2043;52.184;8.690;2022-12-07T07:42:47;10.37;;;4.27;;
4055;SDS011;2043;52.184;8.690;2022-12-07T07:45:14;18.20;;;3.53;;
4055;SDS011;2043;52.184;8.690;2022-12-07T07:47:42;7.70;;;3.63;;
4055;SDS011;2043;52.184;8.690;2022-12-07T07:50:08;13.80;;;4.20;;
4055;SDS011;2043;52.184;8.690;2022-12-07T07:52:35;9.33;;;3.93;;
4055;SDS011;2043;52.184;8.690;2022-12-07T07:55:02;12.43;;;4.10;;
4055;SDS011;2043;52.184;8.690;2022-12-07T07:57:30;10.23;;;3.93;;
4055;SDS011;2043;52.184;8.690;2022-12-07T07:59:57;10.53;;;3.73;;
4055;SDS011;2043;52.184;8.690;2022-12-07T08:02:23;13.30;;;4.50;;
4055;SDS011;2043;52.184;8.690;2022-12-07T08:04:51;12.50;;;4.20;;
4055;SDS011;2043;52.184;8.690;2022-12-07T08:07:18;12.77;;;3.63;;
4055;SDS011;2043;52.184;8.690;2022-12-07T08:09:45;12.60;;;3.80;;
4055;SDS011;2043;52.184;8.690;2022-12-07T08:12:11;11.73;;;4.00;;
4055;SDS011;2043;52.184;8.690;2022-12-07T08:14:38;9.50;;;4.50;;
4055;SDS011;2043;52.184;8.690;2022-12-07T08:17:05;6.20;;;3.50;;
4055;SDS011;2043;52.184;8.690;2022-12-07T08:19:32;12.63;;;3.77;;
4055;SDS011;2043;52.184;8.690;2022-12-07T08:21:59;11.30;;;4.40;;
4055;SDS011;2043;52.184;8.690;2022-12-07T08:24:26;14.30;;;4.67;;
4055;SDS011;2043;52.184;8.690;2022-12-07T08:26:53;15.10;;;4.20;;
4055;SDS011;2043;52.184;8.690;2022-12-07T08:29:20;9.50;;;4.33;;
4055;SDS011;2043;52.184;8.690;2022-12-07T08:31:47;10.00;;;3.83;;
4055;SDS011;2043;52.184;8.690;2022-12-07T08:34:14;10.53;;;3.63;;
4055;SDS011;2043;52.184;8.690;2022-12-07T08:36:41;17.83;;;4.20;;
4055;SDS011;2043;52.184;8.690;2022-12-07T08:39:08;8.90;;;3.37;;
4055;SDS011;2043;52.184;8.690;2022-12-07T08:41:55;11.47;;;3.70;;
4055;SDS011;2043;52.184;8.690;2022-12-07T08:44:21;11.10;;;3.67;;
4055;SDS011;2043;52.184;8.690;2022-12-07T08:46:54;10.40;;;4.23;;
4055;SDS011;2043;52.184;8.690;2022-12-07T08:49:27;13.67;;;4.00;;
4055;SDS011;2043;52.184;8.690;2022-12-07T08:51:58;12.97;;;3.10;;
4055;SDS011;2043;52.184;8.690;2022-12-07T08:54:25;14.27;;;3.67;;
4055;SDS011;2043;52.184;8.690;2022-12-07T08:56:54;9.90;;;3.43;;
4055;SDS011;2043;52.184;8.690;2022-12-07T08:59:25;13.03;;;3.70;;
4055;SDS011;2043;52.184;8.690;2022-12-07T09:01:52;15.80;;;3.40;;
4055;SDS011;2043;52.184;8.690;2022-12-07T09:04:20;11.10;;;3.00;;
4055;SDS011;2043;52.184;8.690;2022-12-07T09:06:47;14.37;;;3.37;;
4055;SDS011;2043;52.184;8.690;2022-12-07T09:09:14;13.00;;;3.13;;
4055;SDS011;2043;52.184;8.690;2022-12-07T09:11:41;9.47;;;3.47;;
4055;SDS011;2043;52.184;8.690;2022-12-07T09:14:10;11.10;;;3.20;;
4055;SDS011;2043;52.184;8.690;2022-12-07T09:16:38;9.17;;;3.57;;
4055;SDS011;2043;52.184;8.690;2022-12-07T09:19:07;15.27;;;4.00;;
4055;SDS011;2043;52.184;8.690;2022-12-07T09:21:34;9.10;;;3.70;;
4055;SDS011;2043;52.184;8.690;2022-12-07T09:24:01;12.87;;;4.10;;
4055;SDS011;2043;52.184;8.690;2022-12-07T09:26:28;20.43;;;3.73;;
4055;SDS011;2043;52.184;8.690;2022-12-07T09:28:55;17.20;;;3.80;;
4055;SDS011;2043;52.184;8.690;2022-12-07T09:31:22;8.40;;;3.27;;
4055;SDS011;2043;52.184;8.690;2022-12-07T09:33:58;15.23;;;4.47;;
4055;SDS011;2043;52.184;8.690;2022-12-07T09:36:27;6.93;;;4.27;;
4055;SDS011;2043;52.184;8.690;2022-12-07T09:38:54;9.87;;;3.93;;
4055;SDS011;2043;52.184;8.690;2022-12-07T09:41:22;12.43;;;4.63;;
4055;SDS011;2043;52.184;8.690;2022-12-07T09:43:50;14.60;;;4.80;;
4055;SDS011;2043;52.184;8.690;2022-12-07T09:46:19;9.03;;;4.20;;
4055;SDS011;2043;52.184;8.690;2022-12-07T09:48:47;12.07;;;3.40;;
4055;SDS011;2043;52.184;8.690;2022-12-07T09:51:17;8.13;;;3.73;;
4055;SDS011;2043;52.184;8.690;2022-12-07T09:53:50;9.13;;;3.83;;
4055;SDS011;2043;52.184;8.690;2022-12-07T09:56:18;7.77;;;3.70;;
4055;SDS011;2043;52.184;8.690;2022-12-07T09:58:46;9.57;;;3.90;;
4055;SDS011;2043;52.184;8.690;2022-12-07T10:01:17;7.70;;;3.33;;
4055;SDS011;2043;52.184;8.690;2022-12-07T10:03:50;6.10;;;3.30;;
4055;SDS011;2043;52.184;8.690;2022-12-07T10:06:19;10.57;;;3.30;;
4055;SDS011;2043;52.184;8.690;2022-12-07T10:08:46;8.57;;;2.70;;
4055;SDS011;2043;52.184;8.690;2022-12-07T10:11:13;13.80;;;3.40;;
4055;SDS011;2043;52.184;8.690;2022-12-07T10:13:43;9.10;;;3.10;;
4055;SDS011;2043;52.184;8.690;2022-12-07T10:19:17;7.10;;;2.93;;
4055;SDS011;2043;52.184;8.690;2022-12-07T10:22:11;7.63;;;2.57;;
4055;SDS011;2043;52.184;8.690;2022-12-07T10:24:41;6.50;;;2.73;;
4055;SDS011;2043;52.184;8.690;2022-12-07T10:27:26;9.43;;;3.60;;
4055;SDS011;2043;52.184;8.690;2022-12-07T10:29:58;9.47;;;3.10;;
4055;SDS011;2043;52.184;8.690;2022-12-07T10:32:35;6.77;;;3.10;;
4055;SDS011;2043;52.184;8.690;2022-12-07T10:38:08;13.07;;;3.53;;
4055;SDS011;2043;52.184;8.690;2022-12-07T10:40:42;16.17;;;3.93;;
4055;SDS011;2043;52.184;8.690;2022-12-07T11:00:08;7.60;;;3.23;;
4055;SDS011;2043;52.184;8.690;2022-12-07T11:11:36;7.70;;;3.13;;
4055;SDS011;2043;52.184;8.690;2022-12-07T11:14:26;11.80;;;4.00;;
4055;SDS011;2043;52.184;8.690;2022-12-07T11:17:12;11.93;;;3.70;;
4055;SDS011;2043;52.184;8.690;2022-12-07T11:22:41;11.30;;;2.90;;
4055;SDS011;2043;52.184;8.690;2022-12-07T11:33:45;9.10;;;2.70;;
4055;SDS011;2043;52.184;8.690;2022-12-07T11:39:36;10.17;;;2.80;;
4055;SDS011;2043;52.184;8.690;2022-12-07T11:42:13;6.03;;;2.50;;
4055;SDS011;2043;52.184;8.690;2022-12-07T11:45:02;8.10;;;3.07;;
4055;SDS011;2043;52.184;8.690;2022-12-07T11:47:39;11.43;;;2.80;;
4055;SDS011;2043;52.184;8.690;2022-12-07T11:58:18;8.00;;;2.43;;
4055;SDS011;2043;52.184;8.690;2022-12-07T12:01:16;9.70;;;2.63;;
4055;SDS011;2043;52.184;8.690;2022-12-07T12:03:47;24.93;;;2.53;;
4055;SDS011;2043;52.184;8.690;2022-12-07T12:06:20;8.87;;;2.67;;
4055;SDS011;2043;52.184;8.690;2022-12-07T12:20:20;10.63;;;3.00;;
4055;SDS011;2043;52.184;8.690;2022-12-07T12:23:01;8.50;;;2.60;;
4055;SDS011;2043;52.184;8.690;2022-12-07T12:25:45;13.07;;;2.30;;
4055;SDS011;2043;52.184;8.690;2022-12-07T12:33:58;6.70;;;2.57;;
4055;SDS011;2043;52.184;8.690;2022-12-07T12:39:13;12.63;;;2.20;;
4055;SDS011;2043;52.184;8.690;2022-12-07T12:51:51;10.47;;;3.13;;
4055;SDS011;2043;52.184;8.690;2022-12-07T12:54:32;8.10;;;2.67;;
4055;SDS011;2043;52.184;8.690;2022-12-07T13:02:25;4.97;;;2.30;;
4055;SDS011;2043;52.184;8.690;2022-12-07T13:12:57;12.27;;;2.87;;
4055;SDS011;2043;52.184;8.690;2022-12-07T13:15:52;12.43;;;3.20;;
4055;SDS011;2043;52.184;8.690;2022-12-07T13:26:23;8.53;;;2.63;;
4055;SDS011;2043;52.184;8.690;2022-12-07T13:34:36;14.67;;;2.50;;
4055;SDS011;2043;52.184;8.690;2022-12-07T13:37:14;9.50;;;2.80;;
4055;SDS011;2043;52.184;8.690;2022-12-07T13:39:52;4.33;;;2.27;;
4055;SDS011;2043;52.184;8.690;2022-12-07T13:44:57;11.50;;;2.47;;
4055;SDS011;2043;52.184;8.690;2022-12-07T13:49:56;9.77;;;2.70;;
4055;SDS011;2043;52.184;8.690;2022-12-07T13:52:24;9.37;;;2.67;;
4055;SDS011;2043;52.184;8.690;2022-12-07T13:57:33;10.07;;;4.10;;
4055;SDS011;2043;52.184;8.690;2022-12-07T14:00:03;14.50;;;3.90;;
4055;SDS011;2043;52.184;8.690;2022-12-07T14:02:32;11.20;;;3.30;;
4055;SDS011;2043;52.184;8.690;2022-12-07T14:08:40;25.53;;;6.17;;
4055;SDS011;2043;52.184;8.690;2022-12-07T14:10:39;21.67;;;5.00;;
4055;SDS011;2043;52.184;8.690;2022-12-07T14:16:01;11.47;;;4.03;;
4055;SDS011;2043;52.184;8.690;2022-12-07T14:18:35;13.70;;;4.07;;
4055;SDS011;2043;52.184;8.690;2022-12-07T14:21:05;6.77;;;2.80;;
4055;SDS011;2043;52.184;8.690;2022-12-07T14:23:42;10.17;;;2.10;;
4055;SDS011;2043;52.184;8.690;2022-12-07T14:28:37;9.70;;;3.50;;
4055;SDS011;2043;52.184;8.690;2022-12-07T14:31:08;10.23;;;2.97;;
4055;SDS011;2043;52.184;8.690;2022-12-07T14:33:43;16.30;;;3.00;;
4055;SDS011;2043;52.184;8.690;2022-12-07T14:36:11;6.93;;;2.60;;
4055;SDS011;2043;52.184;8.690;2022-12-07T14:38:39;7.60;;;2.70;;
4055;SDS011;2043;52.184;8.690;2022-12-07T14:41:06;11.17;;;3.30;;
4055;SDS011;2043;52.184;8.690;2022-12-07T14:43:58;9.00;;;2.80;;
4055;SDS011;2043;52.184;8.690;2022-12-07T14:46:46;7.33;;;2.83;;
4055;SDS011;2043;52.184;8.690;2022-12-07T14:49:14;8.40;;;2.87;;
4055;SDS011;2043;52.184;8.690;2022-12-07T14:51:56;10.10;;;2.57;;
4055;SDS011;2043;52.184;8.690;2022-12-07T14:54:44;7.97;;;2.70;;
4055;SDS011;2043;52.184;8.690;2022-12-07T14:57:11;8.20;;;3.23;;
4055;SDS011;2043;52.184;8.690;2022-12-07T14:59:40;7.67;;;2.30;;
4055;SDS011;2043;52.184;8.690;2022-12-07T15:02:11;9.83;;;2.80;;
4055;SDS011;2043;52.184;8.690;2022-12-07T15:04:39;9.90;;;2.97;;
4055;SDS011;2043;52.184;8.690;2022-12-07T15:07:11;7.70;;;2.83;;
4055;SDS011;2043;52.184;8.690;2022-12-07T15:09:44;8.17;;;3.00;;
4055;SDS011;2043;52.184;8.690;2022-12-07T15:12:11;12.60;;;3.57;;
4055;SDS011;2043;52.184;8.690;2022-12-07T15:14:38;14.33;;;3.90;;
4055;SDS011;2043;52.184;8.690;2022-12-07T15:17:05;13.70;;;3.33;;
4055;SDS011;2043;52.184;8.690;2022-12-07T15:19:35;11.13;;;3.10;;
4055;SDS011;2043;52.184;8.690;2022-12-07T15:22:03;11.83;;;3.50;;
4055;SDS011;2043;52.184;8.690;2022-12-07T15:24:30;7.50;;;3.07;;
4055;SDS011;2043;52.184;8.690;2022-12-07T15:26:57;16.00;;;3.60;;
4055;SDS011;2043;52.184;8.690;2022-12-07T15:29:24;7.30;;;3.10;;
4055;SDS011;2043;52.184;8.690;2022-12-07T15:31:52;11.00;;;3.37;;
4055;SDS011;2043;52.184;8.690;2022-12-07T15:34:23;11.67;;;3.70;;
4055;SDS011;2043;52.184;8.690;2022-12-07T15:36:51;13.03;;;3.73;;
4055;SDS011;2043;52.184;8.690;2022-12-07T15:39:18;10.53;;;3.00;;
4055;SDS011;2043;52.184;8.690;2022-12-07T15:41:45;10.03;;;3.30;;
4055;SDS011;2043;52.184;8.690;2022-12-07T15:44:13;10.97;;;3.00;;
4055;SDS011;2043;52.184;8.690;2022-12-07T15:46:59;8.93;;;2.27;;
4055;SDS011;2043;52.184;8.690;2022-12-07T15:49:26;4.33;;;2.17;;
4055;SDS011;2043;52.184;8.690;2022-12-07T15:51:54;10.40;;;2.60;;
4055;SDS011;2043;52.184;8.690;2022-12-07T15:54:22;6.80;;;2.43;;
4055;SDS011;2043;52.184;8.690;2022-12-07T15:56:51;8.43;;;2.90;;
4055;SDS011;2043;52.184;8.690;2022-12-07T15:59:18;10.77;;;3.07;;
4055;SDS011;2043;52.184;8.690;2022-12-07T16:01:45;9.20;;;3.70;;
4055;SDS011;2043;52.184;8.690;2022-12-07T16:04:12;8.23;;;3.40;;
4055;SDS011;2043;52.184;8.690;2022-12-07T16:06:39;12.73;;;4.50;;
4055;SDS011;2043;52.184;8.690;2022-12-07T16:09:07;11.27;;;4.60;;
4055;SDS011;2043;52.184;8.690;2022-12-07T16:11:34;13.03;;;4.80;;
4055;SDS011;2043;52.184;8.690;2022-12-07T16:14:01;12.60;;;4.80;;
4055;SDS011;2043;52.184;8.690;2022-12-07T16:16:29;21.10;;;8.63;;
4055;SDS011;2043;52.184;8.690;2022-12-07T16:18:56;57.93;;;27.50;;
4055;SDS011;2043;52.184;8.690;2022-12-07T16:21:23;11.60;;;5.50;;
4055;SDS011;2043;52.184;8.690;2022-12-07T16:23:51;7.93;;;4.33;;
4055;SDS011;2043;52.184;8.690;2022-12-07T16:26:19;13.00;;;4.17;;
4055;SDS011;2043;52.184;8.690;2022-12-07T16:28:50;7.30;;;3.03;;
4055;SDS011;2043;52.184;8.690;2022-12-07T16:31:22;6.80;;;2.50;;
4055;SDS011;2043;52.184;8.690;2022-12-07T16:33:55;7.73;;;2.60;;
4055;SDS011;2043;52.184;8.690;2022-12-07T16:36:23;9.27;;;2.13;;
4055;SDS011;2043;52.184;8.690;2022-12-07T16:39:12;11.13;;;3.27;;
4055;SDS011;2043;52.184;8.690;2022-12-07T16:41:39;6.50;;;2.60;;
4055;SDS011;2043;52.184;8.690;2022-12-07T16:44:07;8.93;;;3.60;;
4055;SDS011;2043;52.184;8.690;2022-12-07T16:46:39;8.10;;;3.13;;
4055;SDS011;2043;52.184;8.690;2022-12-07T16:49:08;13.03;;;3.37;;
4055;SDS011;2043;52.184;8.690;2022-12-07T16:51:39;15.57;;;2.93;;
4055;SDS011;2043;52.184;8.690;2022-12-07T16:54:11;4.80;;;2.43;;
4055;SDS011;2043;52.184;8.690;2022-12-07T16:56:40;8.60;;;3.70;;
4055;SDS011;2043;52.184;8.690;2022-12-07T16:59:07;10.50;;;5.03;;
4055;SDS011;2043;52.184;8.690;2022-12-07T17:01:34;8.63;;;3.73;;
4055;SDS011;2043;52.184;8.690;2022-12-07T17:04:06;5.73;;;2.87;;
4055;SDS011;2043;52.184;8.690;2022-12-07T17:06:35;136.63;;;67.87;;
4055;SDS011;2043;52.184;8.690;2022-12-07T17:09:02;21.63;;;9.97;;
4055;SDS011;2043;52.184;8.690;2022-12-07T17:11:31;9.53;;;3.73;;
4055;SDS011;2043;52.184;8.690;2022-12-07T17:13:59;6.43;;;2.93;;
4055;SDS011;2043;52.184;8.690;2022-12-07T17:16:48;11.60;;;3.20;;
4055;SDS011;2043;52.184;8.690;2022-12-07T17:19:27;9.40;;;3.87;;
4055;SDS011;2043;52.184;8.690;2022-12-07T17:21:59;12.70;;;3.20;;
4055;SDS011;2043;52.184;8.690;2022-12-07T17:24:40;15.97;;;5.40;;
4055;SDS011;2043;52.184;8.690;2022-12-07T17:27:16;16.00;;;4.57;;
4055;SDS011;2043;52.184;8.690;2022-12-07T17:29:43;13.47;;;5.10;;
4055;SDS011;2043;52.184;8.690;2022-12-07T17:32:13;15.50;;;5.50;;
4055;SDS011;2043;52.184;8.690;2022-12-07T17:34:43;13.87;;;4.60;;
4055;SDS011;2043;52.184;8.690;2022-12-07T17:37:10;14.70;;;4.10;;
4055;SDS011;2043;52.184;8.690;2022-12-07T17:39:37;9.80;;;4.00;;
4055;SDS011;2043;52.184;8.690;2022-12-07T17:42:05;24.43;;;5.23;;
4055;SDS011;2043;52.184;8.690;2022-12-07T17:44:51;9.40;;;4.10;;
4055;SDS011;2043;52.184;8.690;2022-12-07T17:47:18;18.70;;;4.63;;
4055;SDS011;2043;52.184;8.690;2022-12-07T17:49:48;8.30;;;5.00;;
4055;SDS011;2043;52.184;8.690;2022-12-07T17:52:15;15.80;;;6.00;;
4055;SDS011;2043;52.184;8.690;2022-12-07T17:55:17;13.70;;;6.10;;
4055;SDS011;2043;52.184;8.690;2022-12-07T17:57:52;14.97;;;5.60;;
4055;SDS011;2043;52.184;8.690;2022-12-07T18:00:26;18.23;;;5.90;;
4055;SDS011;2043;52.184;8.690;2022-12-07T18:03:08;12.27;;;5.60;;
4055;SDS011;2043;52.184;8.690;2022-12-07T18:05:37;10.77;;;5.10;;
4055;SDS011;2043;52.184;8.690;2022-12-07T18:08:14;16.00;;;5.50;;
4055;SDS011;2043;52.184;8.690;2022-12-07T18:10:57;12.60;;;5.77;;
4055;SDS011;2043;52.184;8.690;2022-12-07T18:13:52;19.13;;;5.67;;
4055;SDS011;2043;52.184;8.690;2022-12-07T18:16:20;10.90;;;4.50;;
4055;SDS011;2043;52.184;8.690;2022-12-07T18:18:49;11.97;;;4.37;;
4055;SDS011;2043;52.184;8.690;2022-12-07T18:21:22;15.03;;;5.10;;